Terminal Aerodrome Forecast
Issued by NWS

Home | Current Version | Previous Version | Graphics & Text | Print | Product List | Glossary On
Versions: 1 2 3 4 5 6 7 8 9 10 11 12 13 14 15 16 17 18 19 20 21 22 23 24 25 26 27 28 29 30
000
FTUS43 KBIS 031136
TAFDIK
TAF
KDIK 031136Z 0312/0412 VRB04KT 1SM FU SKC
      TEMPO 0312/0316 5SM FU SKC
     FM031600 15005KT P6SM SCT070
     FM040000 16007KT P6SM BKN070=

USA.gov is the U.S. government's official web portal to all federal, state and local government web resources and services.